Hespeler, Canada
Current Conditions -  °F | °C
As of 11:00 PM on Tuesday 21 Oct 2014 (Local Time) from CYKF Reporting Station
Overcast Overcast  
Wind Chill: 34°   Ceiling: 1000
Heat Index: 41°   Visibility: 9mi
Dew Point: 39°   Wind: 13mph
Humidity: 93%   Direction: 20°NNE
Pressure: 30.15"   Gusts: 18mph
Location:  43.43°N, 80.32°W
Report Text: CYKF 220300Z AUTO 02011G16KT 9SM OVC010 05/04 A3015 RMK SLP218
Loading
Personal Weather Stations






























Interactive Weather Map
Tropical Storm Tracking
New forecast layout! Learn more

10-Day Weather Forecast

Advertisements
Track Severe Weather on mobile